• Join FlightAware (Why Join?)
  • Login
  • US Flag 
09:53PM EDT


 

Airport Tracker/Info


-or-


 

Live Flight TrackerFlight Track Log ✈ RPA3436 ✈ 04-Jul-2013 ✈ KCHS - KDCA

Flight Track Log - Related Links

Times and Time Zones

All times are in EDT time to prevent confusion due to time zone crossing. See the RPA3436 flight status page for this flight to view local times or setup timezone preferences in your user account.

Time Position Orientation Groundspeed Altitude Reporting Facility
EDT Latitude Longitude Course Direction KTS MPH feet Rate Location/Type
07:53AM 33.1623 -79.9500 North  Level FlightAware Approximate
07:53AM 32.9294 -79.9400 13° North 253 291 7,300  Level Jacksonville Center
07:54AM 33.2564 -79.9254 North  Level FlightAware Approximate
07:54AM 33.0086 -79.9325 North 258 297 10,300  Level Jacksonville Center
07:55AM 33.3482 -79.8925 23° Northeast  Level FlightAware Approximate
07:55AM 33.1028 -79.9392 357° North 293 337 12,800  Level Jacksonville Center
07:56AM 33.4422 -79.8682 North  Level FlightAware Approximate
07:56AM 33.2133 -79.9406 359° North 338 389 16,200  Level Jacksonville Center
07:57AM 33.5362 -79.8421 13° North  Level FlightAware Approximate
07:57AM 33.3150 -79.9175 11° North 354 407 18,400  Level Jacksonville Center
07:58AM 33.6301 -79.8152 13° North  Level FlightAware Approximate
07:58AM 33.4250 -79.8864 13° North 378 435 20,600  Level Jacksonville Center
07:59AM 33.5328 -79.8553 14° North 392 451 23,000 2,100 Climbing Jacksonville Center
08:00AM 33.6428 -79.8264 12° North 397 457 24,900 960 Climbing Jacksonville Center
08:01AM 33.7567 -79.7925 14° North 403 464 25,000  Climbing Jacksonville Center
08:02AM 33.8661 -79.7486 18° North 411 473 25,000  Level Jacksonville Center
08:03AM 33.9450 -79.6558 44° Northeast 390 449 25,000 360 Level Jacksonville Center
08:04AM 34.0261 -79.5600 44° Northeast 395 455 25,800 960 Climbing Jacksonville Center
08:05AM 34.1069 -79.4592 46° Northeast 401 461 27,000 600 Climbing Jacksonville Center
08:07AM 34.2656 -79.2708 44° Northeast 422 486 27,800 720 Climbing Washington Center
08:08AM 34.3742 -79.2000 28° Northeast 432 497 29,400 1,500 Climbing Washington Center
08:09AM 34.4844 -79.1394 24° Northeast 432 497 30,800 780 Climbing Washington Center
08:10AM 34.5925 -79.0761 26° Northeast 432 497 31,000 60 Climbing Washington Center
08:11AM 34.6922 -79.0197 25° Northeast 416 479 31,000  Level Washington Center
08:12AM 34.7919 -78.9606 26° Northeast 397 457 31,000  Level Washington Center
08:13AM 34.8939 -78.9017 25° Northeast 392 451 31,000  Level Washington Center
08:14AM 34.9936 -78.8422 26° Northeast 392 451 31,000  Level Washington Center
08:15AM 35.0953 -78.7856 25° Northeast 392 451 31,000  Level Washington Center
08:16AM 35.1950 -78.7258 26° Northeast 387 445 31,000  Level Washington Center
08:17AM 35.2944 -78.6661 26° Northeast 387 445 31,000  Level Washington Center
08:18AM 35.4069 -78.5939 28° Northeast 400 460 31,000  Level Washington Center
08:19AM 35.4978 -78.5439 24° Northeast 400 460 31,000 -360 Level Washington Center
08:20AM 35.6206 -78.4742 25° Northeast 424 488 30,300 -780 Descending Washington Center
08:21AM 35.7222 -78.4139 26° Northeast 424 488 29,500 -900 Descending Washington Center
08:22AM 35.8258 -78.3511 26° Northeast 424 488 28,600 -900 Descending Washington Center
08:23AM 35.9297 -78.2881 26° Northeast 414 476 27,800 -780 Descending Washington Center
08:24AM 36.0333 -78.2272 25° Northeast 408 470 27,100 -420 Descending Washington Center
08:25AM 36.1347 -78.1664 26° Northeast 408 470 27,000 -60 Descending Washington Center
08:26AM 36.2361 -78.1053 26° Northeast 408 470 27,000  Level Washington Center
08:27AM 36.3375 -78.0442 26° Northeast 408 470 27,000  Level Washington Center
08:28AM 36.4283 -77.9875 27° Northeast 408 470 27,000  Level Washington Center
08:29AM 36.5403 -77.9186 26° Northeast 422 486 27,000  Level Washington Center
08:30AM 36.6586 -77.8472 26° Northeast 446 513 27,000 -1,020 Level Washington Center
08:31AM 36.7747 -77.7753 26° Northeast 458 527 25,000 -1,620 Descending Washington Center
08:32AM 36.8906 -77.7136 23° Northeast 453 521 23,800 -1,200 Descending Washington Center
08:33AM 37.0103 -77.6675 17° North 453 521 22,600 -960 Descending Washington Center
08:34AM 37.1300 -77.6211 17° North 448 516 22,000 -360 Descending Washington Center
08:35AM 37.2497 -77.5722 18° North 443 510 22,000  Level Washington Center
08:36AM 37.3692 -77.5256 17° North 443 510 22,000  Level Washington Center
08:37AM 37.4889 -77.4764 18° North 443 510 22,000 -120 Level Washington Center
08:38AM 37.6086 -77.4294 17° North 443 510 21,800 -1,140 Descending Washington Center
08:39AM 37.7261 -77.3850 17° North 443 510 19,800 -1,980 Descending Washington Center
08:40AM 37.8372 -77.3403 18° North 437 503 17,900 -1,800 Descending Washington Center
08:41AM 37.9442 -77.2928 19° North 418 481 16,200 -1,860 Descending Washington Center
08:42AM 38.0492 -77.2583 14° North 402 463 14,200 -1,920 Descending Washington Center
08:43AM 38.1497 -77.2156 18° North 385 443 12,400 -1,860 Descending Washington Center
08:44AM 38.2503 -77.1756 17° North 378 435 10,600 -1,260 Descending Washington Center
08:45AM 38.3489 -77.1458 13° North 372 428 10,000 -300 Descending Washington Center
08:46AM 38.4450 -77.1267 North 359 413 10,000  Level Washington Center
08:47AM 38.5306 -77.1097 North 328 377 10,000 -300 Level Washington Center
08:48AM 38.6122 -77.0903 11° North 311 358 9,500 -1,320 Descending Washington Center
08:48AM 38.6667 -77.0667 19° North 305 351 8,000 -2,160 Descending Potomac TRACON
08:49AM 38.7500 -77.0667 360° North 299 344 6,200 -1,080 Descending Potomac TRACON
08:50AM 38.8167 -77.1000 339° North 295 339 6,000 -360 Descending Potomac TRACON
08:51AM 38.8667 -77.1667 314° West 243 280 5,600 -600 Descending Potomac TRACON
08:52AM 38.9167 -77.2167 322° Northwest 205 236 4,900 -1,020 Descending Potomac TRACON
08:53AM 38.9500 -77.2333 339° North 230 265 3,700 -1,020 Descending Potomac TRACON
08:54AM 38.9833 -77.1667 57° Northeast 201 231 3,000 -720 Descending Potomac TRACON